NKS983 KFLL-KMYR
Flight info
| Callsign | NKS983 |
|---|---|
| Flight time | 1h 18m |
| Altitude | 37000 |
| Route | AGERS1 DUCEN Q87 JROSS |
| Aircraft | A21N/M-SDE2E3FGHIRWXY/LB1 |
Departure
| Time | 2026-05-03 20:46 |
|---|---|
| Airport | Fort Lauderdale Hollywood International Airport (KFLL) |
Arrival
| Time | 2026-05-03 22:04 |
|---|---|
| Airport | Myrtle Beach International Airport (KMYR) |
| Time | Latitude | Longitude | Altitude | Speed | Heading |
|---|---|---|---|---|---|
| 2026-05-03 20:15 | 26.06881 | -80.14516 | 19 ft | 0 kts | 360° |
| 2026-05-03 20:20 | 26.06880 | -80.14516 | 19 ft | 2 kts | 360° |
| 2026-05-03 20:20 | 26.06874 | -80.14516 | 19 ft | 0 kts | 0° |
| 2026-05-03 20:21 | 26.06861 | -80.14516 | 20 ft | 2 kts | 0° |
| 2026-05-03 20:21 | 26.06845 | -80.14516 | 21 ft | 2 kts | 0° |
| 2026-05-03 20:22 | 26.06829 | -80.14512 | 20 ft | 2 kts | 322° |
| 2026-05-03 20:22 | 26.06819 | -80.14498 | 20 ft | 2 kts | 283° |
| 2026-05-03 20:22 | 26.06818 | -80.14480 | 20 ft | 2 kts | 271° |
| 2026-05-03 20:22 | 26.06818 | -80.14476 | 20 ft | 0 kts | 270° |
| 2026-05-03 20:27 | 26.06818 | -80.14490 | 19 ft | 8 kts | 270° |
| 2026-05-03 20:27 | 26.06809 | -80.14558 | 18 ft | 9 kts | 242° |
| 2026-05-03 20:27 | 26.06770 | -80.14614 | 18 ft | 7 kts | 243° |
| 2026-05-03 20:27 | 26.06765 | -80.14688 | 18 ft | 14 kts | 271° |
| 2026-05-03 20:28 | 26.06767 | -80.14796 | 18 ft | 14 kts | 270° |
| 2026-05-03 20:28 | 26.06768 | -80.14905 | 18 ft | 14 kts | 270° |
| 2026-05-03 20:28 | 26.06769 | -80.15012 | 19 ft | 14 kts | 270° |
| 2026-05-03 20:28 | 26.06757 | -80.15108 | 20 ft | 12 kts | 239° |
| 2026-05-03 20:29 | 26.06708 | -80.15145 | 23 ft | 7 kts | 225° |
| 2026-05-03 20:29 | 26.06695 | -80.15201 | 24 ft | 12 kts | 268° |
| 2026-05-03 20:29 | 26.06696 | -80.15324 | 19 ft | 18 kts | 271° |
| 2026-05-03 20:29 | 26.06697 | -80.15459 | 19 ft | 16 kts | 270° |
| 2026-05-03 20:30 | 26.06698 | -80.15566 | 19 ft | 14 kts | 270° |
| 2026-05-03 20:30 | 26.06698 | -80.15668 | 19 ft | 10 kts | 270° |
| 2026-05-03 20:30 | 26.06698 | -80.15680 | 19 ft | 0 kts | 270° |
| 2026-05-03 20:32 | 26.06698 | -80.15722 | 19 ft | 9 kts | 270° |
| 2026-05-03 20:32 | 26.06698 | -80.15745 | 19 ft | 0 kts | 270° |
| 2026-05-03 20:34 | 26.06698 | -80.15760 | 19 ft | 5 kts | 270° |
| 2026-05-03 20:35 | 26.06689 | -80.15798 | 19 ft | 0 kts | 238° |
| 2026-05-03 20:44 | 26.06688 | -80.15800 | 20 ft | 2 kts | 234° |
| 2026-05-03 20:44 | 26.06646 | -80.15822 | 19 ft | 11 kts | 187° |
| 2026-05-03 20:44 | 26.06590 | -80.15782 | 22 ft | 9 kts | 108° |
| 2026-05-03 20:45 | 26.06587 | -80.15654 | 25 ft | 34 kts | 90° |
| 2026-05-03 20:45 | 26.06586 | -80.15172 | 24 ft | 90 kts | 90° |
| 2026-05-03 20:45 | 26.06581 | -80.14258 | 55 ft | 144 kts | 90° |
| 2026-05-03 20:45 | 26.06570 | -80.13011 | 259 ft | 167 kts | 90° |
| 2026-05-03 20:46 | 26.06585 | -80.11726 | 740 ft | 170 kts | 81° |
| 2026-05-03 20:46 | 26.06936 | -80.10438 | 1133 ft | 177 kts | 60° |
| 2026-05-03 20:46 | 26.07568 | -80.09258 | 1649 ft | 180 kts | 55° |
| 2026-05-03 20:46 | 26.08330 | -80.08035 | 1890 ft | 204 kts | 49° |
| 2026-05-03 20:47 | 26.09473 | -80.06976 | 2091 ft | 226 kts | 25° |
| 2026-05-03 20:47 | 26.11001 | -80.06256 | 2266 ft | 252 kts | 18° |
| 2026-05-03 20:47 | 26.12700 | -80.05593 | 2797 ft | 263 kts | 17° |
| 2026-05-03 20:47 | 26.14425 | -80.04986 | 3472 ft | 264 kts | 9° |
| 2026-05-03 20:48 | 26.16246 | -80.04929 | 3888 ft | 263 kts | 347° |
| 2026-05-03 20:48 | 26.18013 | -80.05467 | 4010 ft | 265 kts | 339° |
| 2026-05-03 20:48 | 26.19752 | -80.06156 | 4004 ft | 266 kts | 337° |
| 2026-05-03 20:48 | 26.21422 | -80.07014 | 4009 ft | 263 kts | 324° |
| 2026-05-03 20:49 | 26.22709 | -80.08422 | 4031 ft | 261 kts | 301° |
| 2026-05-03 20:49 | 26.23519 | -80.10223 | 3974 ft | 259 kts | 291° |
| 2026-05-03 20:49 | 26.24158 | -80.12075 | 3997 ft | 255 kts | 290° |
| 2026-05-03 20:49 | 26.24817 | -80.13925 | 4130 ft | 260 kts | 293° |
| 2026-05-03 20:50 | 26.25780 | -80.15635 | 4745 ft | 264 kts | 312° |
| 2026-05-03 20:50 | 26.27244 | -80.16877 | 5535 ft | 267 kts | 327° |
| 2026-05-03 20:50 | 26.28891 | -80.17864 | 6297 ft | 271 kts | 330° |
| 2026-05-03 20:50 | 26.30586 | -80.18808 | 7030 ft | 274 kts | 330° |
| 2026-05-03 20:51 | 26.32298 | -80.19756 | 7782 ft | 276 kts | 330° |
| 2026-05-03 20:51 | 26.34024 | -80.20719 | 8531 ft | 279 kts | 329° |
| 2026-05-03 20:51 | 26.35763 | -80.21695 | 9298 ft | 281 kts | 329° |
| 2026-05-03 20:51 | 26.37568 | -80.22577 | 10064 ft | 288 kts | 339° |
| 2026-05-03 20:52 | 26.39594 | -80.23025 | 10498 ft | 308 kts | 348° |
| 2026-05-03 20:52 | 26.41802 | -80.23277 | 10743 ft | 329 kts | 350° |
| 2026-05-03 20:52 | 26.43972 | -80.23482 | 10960 ft | 347 kts | 351° |
| 2026-05-03 20:52 | 26.46429 | -80.23713 | 11222 ft | 361 kts | 351° |
| 2026-05-03 20:53 | 26.48964 | -80.23959 | 11674 ft | 369 kts | 351° |
| 2026-05-03 20:53 | 26.51538 | -80.24213 | 12236 ft | 373 kts | 350° |
| 2026-05-03 20:53 | 26.54130 | -80.24473 | 12799 ft | 376 kts | 350° |
| 2026-05-03 20:53 | 26.56737 | -80.24781 | 13396 ft | 378 kts | 348° |
| 2026-05-03 20:54 | 26.59351 | -80.25191 | 13979 ft | 381 kts | 347° |
| 2026-05-03 20:54 | 26.64636 | -80.26076 | 14996 ft | 388 kts | 346° |
| 2026-05-03 20:54 | 26.67315 | -80.26525 | 15504 ft | 391 kts | 346° |
| 2026-05-03 20:55 | 26.70003 | -80.27023 | 16010 ft | 393 kts | 341° |
| 2026-05-03 20:55 | 26.72623 | -80.27892 | 16511 ft | 391 kts | 335° |
| 2026-05-03 20:55 | 26.75187 | -80.28936 | 17021 ft | 394 kts | 334° |
| 2026-05-03 20:55 | 26.77763 | -80.30019 | 17529 ft | 397 kts | 333° |
| 2026-05-03 20:56 | 26.80354 | -80.31112 | 18003 ft | 399 kts | 333° |
| 2026-05-03 20:56 | 26.82960 | -80.32210 | 18401 ft | 402 kts | 333° |
| 2026-05-03 20:56 | 26.85586 | -80.33314 | 18758 ft | 405 kts | 333° |
| 2026-05-03 20:56 | 26.88239 | -80.34427 | 19102 ft | 409 kts | 333° |
| 2026-05-03 20:57 | 26.90908 | -80.35546 | 19467 ft | 411 kts | 333° |
| 2026-05-03 20:57 | 26.93592 | -80.36669 | 19803 ft | 413 kts | 333° |
| 2026-05-03 20:57 | 26.96263 | -80.37758 | 20128 ft | 416 kts | 333° |
| 2026-05-03 20:57 | 26.99032 | -80.38874 | 20474 ft | 418 kts | 333° |
| 2026-05-03 20:58 | 27.01740 | -80.39965 | 20800 ft | 421 kts | 333° |
| 2026-05-03 20:58 | 27.04504 | -80.41079 | 21139 ft | 423 kts | 333° |
| 2026-05-03 20:58 | 27.07282 | -80.42200 | 21483 ft | 426 kts | 333° |
| 2026-05-03 20:58 | 27.10063 | -80.43357 | 21842 ft | 427 kts | 332° |
| 2026-05-03 20:59 | 27.12838 | -80.44571 | 22234 ft | 429 kts | 331° |
| 2026-05-03 20:59 | 27.15621 | -80.45801 | 22596 ft | 432 kts | 330° |
| 2026-05-03 20:59 | 27.18419 | -80.47039 | 23000 ft | 433 kts | 330° |
| 2026-05-03 20:59 | 27.21231 | -80.48283 | 23364 ft | 436 kts | 330° |
| 2026-05-03 21:00 | 27.24063 | -80.49537 | 23687 ft | 438 kts | 330° |
| 2026-05-03 21:00 | 27.25023 | -80.49962 | 23787 ft | 439 kts | 330° |
| 2026-05-03 21:00 | 27.29772 | -80.52064 | 24296 ft | 444 kts | 330° |
| 2026-05-03 21:00 | 27.32653 | -80.53338 | 24605 ft | 445 kts | 330° |
| 2026-05-03 21:01 | 27.35542 | -80.54617 | 24911 ft | 448 kts | 330° |
| 2026-05-03 21:01 | 27.37521 | -80.55452 | 25101 ft | 451 kts | 332° |
| 2026-05-03 21:01 | 27.40488 | -80.56642 | 25386 ft | 454 kts | 332° |
| 2026-05-03 21:01 | 27.43473 | -80.57823 | 25676 ft | 456 kts | 332° |
| 2026-05-03 21:02 | 27.46472 | -80.59009 | 25965 ft | 457 kts | 332° |
| 2026-05-03 21:02 | 27.49478 | -80.60201 | 26236 ft | 459 kts | 332° |
| 2026-05-03 21:02 | 27.52496 | -80.61399 | 26506 ft | 461 kts | 332° |
| 2026-05-03 21:02 | 27.55525 | -80.62604 | 26757 ft | 463 kts | 332° |
| 2026-05-03 21:03 | 27.58564 | -80.63814 | 27008 ft | 464 kts | 332° |
| 2026-05-03 21:03 | 27.61617 | -80.65030 | 27263 ft | 466 kts | 332° |
| 2026-05-03 21:03 | 27.64679 | -80.66250 | 27514 ft | 468 kts | 332° |
| 2026-05-03 21:03 | 27.67755 | -80.67477 | 27769 ft | 469 kts | 332° |
| 2026-05-03 21:04 | 27.70827 | -80.68702 | 28108 ft | 468 kts | 332° |
| 2026-05-03 21:04 | 27.73892 | -80.69925 | 28466 ft | 467 kts | 332° |
| 2026-05-03 21:04 | 27.76950 | -80.71147 | 28817 ft | 466 kts | 332° |
| 2026-05-03 21:04 | 27.80009 | -80.72370 | 29128 ft | 466 kts | 332° |
| 2026-05-03 21:05 | 27.82035 | -80.73180 | 29359 ft | 466 kts | 332° |
| 2026-05-03 21:05 | 27.85085 | -80.74401 | 29693 ft | 465 kts | 332° |
| 2026-05-03 21:05 | 27.89163 | -80.76035 | 30141 ft | 464 kts | 331° |
| 2026-05-03 21:05 | 27.91177 | -80.76842 | 30336 ft | 464 kts | 331° |
| 2026-05-03 21:06 | 27.94213 | -80.78060 | 30647 ft | 462 kts | 331° |
| 2026-05-03 21:06 | 27.97237 | -80.79272 | 30971 ft | 460 kts | 330° |
| 2026-05-03 21:06 | 28.00246 | -80.80480 | 31315 ft | 458 kts | 330° |
| 2026-05-03 21:06 | 28.03240 | -80.81683 | 31638 ft | 456 kts | 330° |
| 2026-05-03 21:07 | 28.06228 | -80.82884 | 32002 ft | 455 kts | 330° |
| 2026-05-03 21:07 | 28.09211 | -80.84084 | 32275 ft | 454 kts | 329° |
| 2026-05-03 21:07 | 28.12184 | -80.85281 | 32590 ft | 453 kts | 329° |
| 2026-05-03 21:07 | 28.15146 | -80.86473 | 32938 ft | 451 kts | 329° |
| 2026-05-03 21:08 | 28.18096 | -80.87661 | 33300 ft | 448 kts | 328° |
| 2026-05-03 21:08 | 28.21023 | -80.88841 | 33617 ft | 446 kts | 328° |
| 2026-05-03 21:08 | 28.23944 | -80.90019 | 33892 ft | 444 kts | 328° |
| 2026-05-03 21:08 | 28.26851 | -80.91193 | 34161 ft | 443 kts | 327° |
| 2026-05-03 21:09 | 28.29754 | -80.92368 | 34335 ft | 443 kts | 327° |
| 2026-05-03 21:09 | 28.32663 | -80.93546 | 34474 ft | 444 kts | 327° |
| 2026-05-03 21:09 | 28.35574 | -80.94724 | 34629 ft | 444 kts | 327° |
| 2026-05-03 21:09 | 28.38482 | -80.95901 | 34839 ft | 443 kts | 327° |
| 2026-05-03 21:10 | 28.41383 | -80.97074 | 35029 ft | 443 kts | 327° |
| 2026-05-03 21:10 | 28.44285 | -80.98250 | 35168 ft | 443 kts | 327° |
| 2026-05-03 21:10 | 28.47147 | -80.99411 | 35295 ft | 443 kts | 327° |
| 2026-05-03 21:10 | 28.50053 | -81.00590 | 35425 ft | 444 kts | 327° |
| 2026-05-03 21:11 | 28.52958 | -81.01769 | 35563 ft | 444 kts | 327° |
| 2026-05-03 21:11 | 28.55907 | -81.02967 | 35696 ft | 444 kts | 327° |
| 2026-05-03 21:11 | 28.58773 | -81.04131 | 35817 ft | 444 kts | 327° |
| 2026-05-03 21:11 | 28.61683 | -81.05314 | 35942 ft | 444 kts | 327° |
| 2026-05-03 21:12 | 28.64593 | -81.06498 | 36067 ft | 444 kts | 327° |
| 2026-05-03 21:12 | 28.67502 | -81.07681 | 36241 ft | 444 kts | 327° |
| 2026-05-03 21:12 | 28.73337 | -81.10060 | 36416 ft | 446 kts | 327° |
| 2026-05-03 21:13 | 28.79190 | -81.12447 | 36586 ft | 447 kts | 326° |
| 2026-05-03 21:13 | 28.85056 | -81.14843 | 36779 ft | 449 kts | 327° |
| 2026-05-03 21:14 | 28.87999 | -81.16046 | 36906 ft | 450 kts | 326° |
| 2026-05-03 21:14 | 28.90949 | -81.17253 | 36971 ft | 451 kts | 326° |
| 2026-05-03 21:14 | 28.93905 | -81.18462 | 37073 ft | 452 kts | 326° |
| 2026-05-03 21:14 | 28.96870 | -81.19677 | 37141 ft | 454 kts | 326° |
| 2026-05-03 21:15 | 29.02815 | -81.22112 | 37100 ft | 454 kts | 326° |
| 2026-05-03 21:15 | 29.08763 | -81.24550 | 37105 ft | 454 kts | 326° |
| 2026-05-03 21:16 | 29.14703 | -81.26990 | 37100 ft | 454 kts | 326° |
| 2026-05-03 21:16 | 29.20642 | -81.29433 | 37105 ft | 454 kts | 326° |
| 2026-05-03 21:17 | 29.25593 | -81.31440 | 37111 ft | 458 kts | 329° |
| 2026-05-03 21:17 | 29.29865 | -81.32426 | 37118 ft | 478 kts | 340° |
| 2026-05-03 21:17 | 29.33202 | -81.32774 | 37120 ft | 484 kts | 343° |
| 2026-05-03 21:18 | 29.39958 | -81.33169 | 37115 ft | 488 kts | 345° |
| 2026-05-03 21:18 | 29.46697 | -81.33477 | 37116 ft | 488 kts | 345° |
| 2026-05-03 21:19 | 29.53474 | -81.33829 | 37136 ft | 487 kts | 344° |
| 2026-05-03 21:19 | 29.60235 | -81.34220 | 37133 ft | 487 kts | 344° |
| 2026-05-03 21:20 | 29.66978 | -81.34622 | 37133 ft | 487 kts | 344° |
| 2026-05-03 21:20 | 29.73744 | -81.35024 | 37131 ft | 487 kts | 344° |
| 2026-05-03 21:21 | 29.80506 | -81.35426 | 37131 ft | 487 kts | 344° |
| 2026-05-03 21:21 | 29.87277 | -81.35829 | 37130 ft | 487 kts | 344° |
| 2026-05-03 21:22 | 29.94043 | -81.36231 | 37128 ft | 487 kts | 344° |
| 2026-05-03 21:22 | 30.00723 | -81.36628 | 37128 ft | 487 kts | 344° |
| 2026-05-03 21:23 | 30.07490 | -81.37032 | 37129 ft | 487 kts | 344° |
| 2026-05-03 21:23 | 30.14259 | -81.37436 | 37138 ft | 487 kts | 344° |
| 2026-05-03 21:24 | 30.21019 | -81.37840 | 37135 ft | 487 kts | 344° |
| 2026-05-03 21:24 | 30.27781 | -81.38245 | 37129 ft | 486 kts | 344° |
| 2026-05-03 21:25 | 30.34538 | -81.38651 | 37125 ft | 486 kts | 344° |
| 2026-05-03 21:25 | 30.41298 | -81.39057 | 37128 ft | 486 kts | 344° |
| 2026-05-03 21:26 | 30.48053 | -81.39455 | 37127 ft | 486 kts | 345° |
| 2026-05-03 21:26 | 30.54818 | -81.39816 | 37137 ft | 487 kts | 345° |
| 2026-05-03 21:27 | 30.61584 | -81.40166 | 37140 ft | 487 kts | 345° |
| 2026-05-03 21:27 | 30.68348 | -81.40520 | 37174 ft | 486 kts | 345° |
| 2026-05-03 21:28 | 30.75106 | -81.40877 | 37137 ft | 486 kts | 345° |
| 2026-05-03 21:28 | 30.81855 | -81.41235 | 37136 ft | 485 kts | 345° |
| 2026-05-03 21:29 | 30.88603 | -81.41595 | 37138 ft | 485 kts | 345° |
| 2026-05-03 21:29 | 30.95346 | -81.41955 | 37125 ft | 485 kts | 345° |
| 2026-05-03 21:30 | 31.02092 | -81.42315 | 37131 ft | 485 kts | 345° |
| 2026-05-03 21:30 | 31.08832 | -81.42675 | 37116 ft | 485 kts | 345° |
| 2026-05-03 21:31 | 31.15572 | -81.43036 | 37120 ft | 485 kts | 345° |
| 2026-05-03 21:31 | 31.22288 | -81.43269 | 37123 ft | 495 kts | 352° |
| 2026-05-03 21:32 | 31.25744 | -81.42714 | 37053 ft | 509 kts | 4° |
| 2026-05-03 21:32 | 31.29151 | -81.41409 | 36801 ft | 520 kts | 12° |
| 2026-05-03 21:32 | 31.32506 | -81.39790 | 36546 ft | 522 kts | 15° |
| 2026-05-03 21:32 | 31.35814 | -81.38033 | 36296 ft | 522 kts | 17° |
| 2026-05-03 21:33 | 31.39092 | -81.36216 | 36051 ft | 521 kts | 17° |
| 2026-05-03 21:33 | 31.42358 | -81.34386 | 35813 ft | 519 kts | 18° |
| 2026-05-03 21:33 | 31.45530 | -81.32613 | 35571 ft | 518 kts | 17° |
| 2026-05-03 21:33 | 31.48783 | -81.30809 | 35326 ft | 516 kts | 17° |
| 2026-05-03 21:34 | 31.52031 | -81.29022 | 35129 ft | 515 kts | 17° |
| 2026-05-03 21:34 | 31.55272 | -81.27250 | 34886 ft | 514 kts | 17° |
| 2026-05-03 21:34 | 31.58509 | -81.25486 | 34645 ft | 513 kts | 17° |
| 2026-05-03 21:34 | 31.61744 | -81.23724 | 34411 ft | 512 kts | 17° |
| 2026-05-03 21:35 | 31.64975 | -81.21964 | 34173 ft | 511 kts | 17° |
| 2026-05-03 21:35 | 31.68196 | -81.20207 | 33904 ft | 510 kts | 17° |
| 2026-05-03 21:35 | 31.71412 | -81.18450 | 33630 ft | 510 kts | 17° |
| 2026-05-03 21:35 | 31.74625 | -81.16694 | 33362 ft | 510 kts | 17° |
| 2026-05-03 21:36 | 31.77842 | -81.14935 | 33168 ft | 509 kts | 17° |
| 2026-05-03 21:36 | 31.81050 | -81.13178 | 33102 ft | 509 kts | 17° |
| 2026-05-03 21:36 | 31.87468 | -81.09658 | 33089 ft | 509 kts | 17° |
| 2026-05-03 21:37 | 31.93880 | -81.06138 | 33084 ft | 508 kts | 17° |
| 2026-05-03 21:37 | 32.00292 | -81.02610 | 33083 ft | 509 kts | 17° |
| 2026-05-03 21:38 | 32.06689 | -80.99047 | 33095 ft | 508 kts | 18° |
| 2026-05-03 21:38 | 32.13067 | -80.95470 | 33091 ft | 507 kts | 18° |
| 2026-05-03 21:39 | 32.19435 | -80.91895 | 33134 ft | 507 kts | 18° |
| 2026-05-03 21:39 | 32.25771 | -80.88338 | 33132 ft | 508 kts | 17° |
| 2026-05-03 21:40 | 32.32153 | -80.84750 | 33137 ft | 508 kts | 17° |
| 2026-05-03 21:40 | 32.38522 | -80.81163 | 33129 ft | 507 kts | 17° |
| 2026-05-03 21:41 | 32.44890 | -80.77571 | 33122 ft | 507 kts | 17° |
| 2026-05-03 21:41 | 32.51254 | -80.73976 | 33131 ft | 507 kts | 17° |
| 2026-05-03 21:42 | 32.57532 | -80.70424 | 33130 ft | 506 kts | 17° |
| 2026-05-03 21:42 | 32.63883 | -80.66825 | 33127 ft | 506 kts | 17° |
| 2026-05-03 21:43 | 32.70175 | -80.63038 | 33105 ft | 516 kts | 30° |
| 2026-05-03 21:43 | 32.72883 | -80.60187 | 33130 ft | 525 kts | 42° |
| 2026-05-03 21:43 | 32.75320 | -80.56940 | 33124 ft | 528 kts | 45° |
| 2026-05-03 21:44 | 32.80083 | -80.50269 | 33170 ft | 530 kts | 45° |
| 2026-05-03 21:44 | 32.84865 | -80.43581 | 33118 ft | 531 kts | 45° |
| 2026-05-03 21:45 | 32.89669 | -80.36851 | 32458 ft | 537 kts | 45° |
| 2026-05-03 21:45 | 32.92090 | -80.33452 | 31603 ft | 539 kts | 45° |
| 2026-05-03 21:45 | 32.94516 | -80.30040 | 30793 ft | 540 kts | 45° |
| 2026-05-03 21:46 | 32.96939 | -80.26629 | 29999 ft | 540 kts | 45° |
| 2026-05-03 21:46 | 32.99306 | -80.23292 | 28942 ft | 534 kts | 46° |
| 2026-05-03 21:46 | 33.01691 | -80.19928 | 27647 ft | 528 kts | 46° |
| 2026-05-03 21:46 | 33.04035 | -80.16617 | 26625 ft | 516 kts | 46° |
| 2026-05-03 21:47 | 33.06314 | -80.13393 | 25859 ft | 501 kts | 46° |
| 2026-05-03 21:47 | 33.08522 | -80.10266 | 25206 ft | 485 kts | 46° |
| 2026-05-03 21:47 | 33.10664 | -80.07233 | 24544 ft | 472 kts | 46° |
| 2026-05-03 21:47 | 33.12752 | -80.04277 | 23892 ft | 461 kts | 46° |
| 2026-05-03 21:48 | 33.14815 | -80.01357 | 23155 ft | 461 kts | 46° |
| 2026-05-03 21:48 | 33.16875 | -79.98438 | 22479 ft | 458 kts | 46° |
| 2026-05-03 21:48 | 33.18883 | -79.95589 | 21852 ft | 455 kts | 46° |
| 2026-05-03 21:48 | 33.20862 | -79.92779 | 21225 ft | 452 kts | 47° |
| 2026-05-03 21:49 | 33.22876 | -79.89917 | 20581 ft | 449 kts | 47° |
| 2026-05-03 21:49 | 33.24878 | -79.87068 | 19927 ft | 446 kts | 47° |
| 2026-05-03 21:49 | 33.26864 | -79.84240 | 19290 ft | 443 kts | 47° |
| 2026-05-03 21:49 | 33.28840 | -79.81425 | 18634 ft | 440 kts | 47° |
| 2026-05-03 21:50 | 33.30799 | -79.78631 | 17920 ft | 437 kts | 47° |
| 2026-05-03 21:50 | 33.32741 | -79.75859 | 17198 ft | 431 kts | 47° |
| 2026-05-03 21:50 | 33.34567 | -79.73245 | 16568 ft | 413 kts | 47° |
| 2026-05-03 21:50 | 33.36387 | -79.70640 | 15983 ft | 396 kts | 47° |
| 2026-05-03 21:51 | 33.38125 | -79.68151 | 15406 ft | 385 kts | 47° |
| 2026-05-03 21:51 | 33.39842 | -79.65696 | 14837 ft | 385 kts | 47° |
| 2026-05-03 21:51 | 33.41535 | -79.63275 | 14273 ft | 384 kts | 47° |
| 2026-05-03 21:51 | 33.43269 | -79.60792 | 13666 ft | 382 kts | 47° |
| 2026-05-03 21:52 | 33.44944 | -79.58391 | 13065 ft | 379 kts | 47° |
| 2026-05-03 21:52 | 33.46623 | -79.55981 | 12507 ft | 375 kts | 47° |
| 2026-05-03 21:52 | 33.48280 | -79.53599 | 11955 ft | 370 kts | 47° |
| 2026-05-03 21:52 | 33.49917 | -79.51246 | 11391 ft | 366 kts | 47° |
| 2026-05-03 21:53 | 33.51536 | -79.48920 | 10861 ft | 362 kts | 47° |
| 2026-05-03 21:53 | 33.53136 | -79.46618 | 10384 ft | 356 kts | 47° |
| 2026-05-03 21:53 | 33.54186 | -79.45104 | 10317 ft | 343 kts | 47° |
| 2026-05-03 21:53 | 33.56124 | -79.42303 | 10202 ft | 314 kts | 46° |
| 2026-05-03 21:54 | 33.57047 | -79.40968 | 9968 ft | 303 kts | 46° |
| 2026-05-03 21:54 | 33.58377 | -79.39050 | 9594 ft | 295 kts | 46° |
| 2026-05-03 21:54 | 33.59671 | -79.37185 | 9354 ft | 288 kts | 46° |
| 2026-05-03 21:54 | 33.60927 | -79.35376 | 9028 ft | 284 kts | 46° |
| 2026-05-03 21:55 | 33.62190 | -79.33556 | 8626 ft | 284 kts | 46° |
| 2026-05-03 21:55 | 33.63452 | -79.31736 | 8236 ft | 283 kts | 46° |
| 2026-05-03 21:55 | 33.64708 | -79.29922 | 7839 ft | 282 kts | 46° |
| 2026-05-03 21:55 | 33.65957 | -79.28116 | 7464 ft | 281 kts | 46° |
| 2026-05-03 21:56 | 33.67203 | -79.26313 | 7095 ft | 280 kts | 46° |
| 2026-05-03 21:56 | 33.68462 | -79.24490 | 6711 ft | 279 kts | 46° |
| 2026-05-03 21:56 | 33.69680 | -79.22725 | 6339 ft | 278 kts | 46° |
| 2026-05-03 21:56 | 33.70909 | -79.20945 | 5940 ft | 276 kts | 47° |
| 2026-05-03 21:57 | 33.72129 | -79.19178 | 5563 ft | 274 kts | 47° |
| 2026-05-03 21:57 | 33.73343 | -79.17418 | 5181 ft | 273 kts | 47° |
| 2026-05-03 21:57 | 33.74552 | -79.15667 | 4799 ft | 271 kts | 49° |
| 2026-05-03 21:57 | 33.75750 | -79.13926 | 4416 ft | 269 kts | 49° |
| 2026-05-03 21:58 | 33.76938 | -79.12198 | 4059 ft | 268 kts | 49° |
| 2026-05-03 21:58 | 33.78122 | -79.10476 | 3695 ft | 266 kts | 49° |
| 2026-05-03 21:58 | 33.79299 | -79.08765 | 3336 ft | 265 kts | 50° |
| 2026-05-03 21:58 | 33.80464 | -79.07069 | 2965 ft | 261 kts | 49° |
| 2026-05-03 21:59 | 33.81602 | -79.05412 | 2501 ft | 256 kts | 49° |
| 2026-05-03 21:59 | 33.82743 | -79.03746 | 2123 ft | 261 kts | 51° |
| 2026-05-03 21:59 | 33.83713 | -79.01879 | 1869 ft | 266 kts | 67° |
| 2026-05-03 21:59 | 33.83965 | -78.99756 | 1690 ft | 253 kts | 101° |
| 2026-05-03 22:00 | 33.83223 | -78.97965 | 1454 ft | 232 kts | 134° |
| 2026-05-03 22:00 | 33.82022 | -78.96805 | 1262 ft | 214 kts | 153° |
| 2026-05-03 22:00 | 33.80695 | -78.96194 | 1316 ft | 193 kts | 170° |
| 2026-05-03 22:00 | 33.79446 | -78.95971 | 1361 ft | 172 kts | 174° |
| 2026-05-03 22:01 | 33.78321 | -78.95742 | 1298 ft | 159 kts | 169° |
| 2026-05-03 22:01 | 33.77240 | -78.95296 | 1247 ft | 165 kts | 162° |
| 2026-05-03 22:01 | 33.76174 | -78.94887 | 1115 ft | 155 kts | 168° |
| 2026-05-03 22:01 | 33.75129 | -78.94654 | 978 ft | 148 kts | 171° |
| 2026-05-03 22:02 | 33.74161 | -78.94422 | 805 ft | 141 kts | 169° |
| 2026-05-03 22:02 | 33.73189 | -78.94130 | 647 ft | 148 kts | 168° |
| 2026-05-03 22:02 | 33.72151 | -78.93862 | 549 ft | 158 kts | 171° |
| 2026-05-03 22:02 | 33.71126 | -78.93630 | 354 ft | 143 kts | 170° |
| 2026-05-03 22:03 | 33.70186 | -78.93383 | 232 ft | 136 kts | 170° |
| 2026-05-03 22:03 | 33.69270 | -78.93155 | 88 ft | 132 kts | 170° |
| 2026-05-03 22:03 | 33.68435 | -78.92948 | 35 ft | 112 kts | 171° |
| 2026-05-03 22:03 | 33.67839 | -78.92799 | 35 ft | 61 kts | 168° |
| 2026-05-03 22:04 | 33.67571 | -78.92670 | 34 ft | 32 kts | 141° |
| 2026-05-03 22:04 | 33.67484 | -78.92546 | 35 ft | 15 kts | 76° |
| 2026-05-03 22:04 | 33.67570 | -78.92530 | 35 ft | 14 kts | 348° |
| 2026-05-03 22:04 | 33.67664 | -78.92553 | 35 ft | 14 kts | 348° |
| 2026-05-03 22:05 | 33.67772 | -78.92578 | 35 ft | 18 kts | 349° |
| 2026-05-03 22:05 | 33.67876 | -78.92547 | 35 ft | 15 kts | 58° |
| 2026-05-03 22:05 | 33.67915 | -78.92488 | 34 ft | 7 kts | 39° |
| 2026-05-03 22:05 | 33.67953 | -78.92451 | 35 ft | 7 kts | 39° |
| 2026-05-03 22:06 | 33.67970 | -78.92434 | 35 ft | 0 kts | 39° |